sensor_id;sensor_type;location;lat;lon;timestamp;pressure;altitude;pressure_sealevel;temperature;humidity
13486;BME280;6815;59.336;17.998;2023-04-30T00:00:20;52169.00;;;-145.37;81.88
13486;BME280;6815;59.336;17.998;2023-04-30T00:02:46;52143.06;;;-145.37;81.39
13486;BME280;6815;59.336;17.998;2023-04-30T00:05:11;52180.97;;;-145.37;81.45
13486;BME280;6815;59.336;17.998;2023-04-30T00:07:36;52167.00;;;-145.37;81.48
13486;BME280;6815;59.336;17.998;2023-04-30T00:10:09;52153.03;;;-145.37;81.39
13486;BME280;6815;59.336;17.998;2023-04-30T00:12:35;52135.06;;;-145.37;81.25
13486;BME280;6815;59.336;17.998;2023-04-30T00:15:01;52188.97;;;-145.37;81.49
13486;BME280;6815;59.336;17.998;2023-04-30T00:17:27;52159.03;;;-145.37;81.02
13486;BME280;6815;59.336;17.998;2023-04-30T00:19:52;52167.00;;;-145.37;81.41
13486;BME280;6815;59.336;17.998;2023-04-30T00:22:18;52131.06;;;-145.37;81.38
13486;BME280;6815;59.336;17.998;2023-04-30T00:24:43;52161.03;;;-145.37;80.75
13486;BME280;6815;59.336;17.998;2023-04-30T00:27:08;52143.06;;;-145.37;80.94
13486;BME280;6815;59.336;17.998;2023-04-30T00:29:34;52129.06;;;-145.37;80.91
13486;BME280;6815;59.336;17.998;2023-04-30T00:31:59;52171.00;;;-145.37;80.55
13486;BME280;6815;59.336;17.998;2023-04-30T00:34:25;52135.06;;;-145.37;81.33
13486;BME280;6815;59.336;17.998;2023-04-30T00:36:50;52188.97;;;-145.37;80.82
13486;BME280;6815;59.336;17.998;2023-04-30T00:39:15;52210.91;;;-145.37;80.88
13486;BME280;6815;59.336;17.998;2023-04-30T00:41:41;52173.00;;;-145.37;80.73
13486;BME280;6815;59.336;17.998;2023-04-30T00:44:07;52169.00;;;-145.37;80.23
13486;BME280;6815;59.336;17.998;2023-04-30T00:46:32;52163.00;;;-145.37;80.01
13486;BME280;6815;59.336;17.998;2023-04-30T00:48:58;52163.00;;;-145.37;80.47
13486;BME280;6815;59.336;17.998;2023-04-30T00:51:26;52175.00;;;-145.37;79.96
13486;BME280;6815;59.336;17.998;2023-04-30T00:53:53;52180.97;;;-145.37;79.42
13486;BME280;6815;59.336;17.998;2023-04-30T00:56:18;52171.00;;;-145.37;80.15
13486;BME280;6815;59.336;17.998;2023-04-30T00:58:45;52165.00;;;-145.37;79.52
13486;BME280;6815;59.336;17.998;2023-04-30T01:01:11;52163.00;;;-145.37;79.69
13486;BME280;6815;59.336;17.998;2023-04-30T01:03:37;52149.03;;;-145.37;78.65
13486;BME280;6815;59.336;17.998;2023-04-30T01:06:02;52139.06;;;-145.37;78.80
13486;BME280;6815;59.336;17.998;2023-04-30T01:08:31;52177.00;;;-145.37;78.40
13486;BME280;6815;59.336;17.998;2023-04-30T01:13:47;52157.03;;;-145.37;78.11
13486;BME280;6815;59.336;17.998;2023-04-30T01:18:59;52145.03;;;-145.37;78.15
13486;BME280;6815;59.336;17.998;2023-04-30T01:21:27;52167.00;;;-145.37;78.14
13486;BME280;6815;59.336;17.998;2023-04-30T01:27:14;52163.00;;;-145.37;78.45
13486;BME280;6815;59.336;17.998;2023-04-30T01:29:49;52149.03;;;-145.37;78.38
13486;BME280;6815;59.336;17.998;2023-04-30T01:32:15;52167.00;;;-145.37;80.00
13486;BME280;6815;59.336;17.998;2023-04-30T01:34:40;52155.03;;;-145.37;78.60
13486;BME280;6815;59.336;17.998;2023-04-30T01:42:39;52178.97;;;-145.37;77.82
13486;BME280;6815;59.336;17.998;2023-04-30T01:50:47;52163.00;;;-145.37;78.34
13486;BME280;6815;59.336;17.998;2023-04-30T01:53:20;52149.03;;;-145.37;78.64
13486;BME280;6815;59.336;17.998;2023-04-30T01:55:50;52165.00;;;-145.37;78.25
13486;BME280;6815;59.336;17.998;2023-04-30T01:58:21;52125.09;;;-145.37;78.28
13486;BME280;6815;59.336;17.998;2023-04-30T02:00:47;52135.06;;;-145.37;78.02
13486;BME280;6815;59.336;17.998;2023-04-30T02:03:13;52165.00;;;-145.37;77.91
13486;BME280;6815;59.336;17.998;2023-04-30T02:05:38;52159.03;;;-145.37;78.15
13486;BME280;6815;59.336;17.998;2023-04-30T02:08:04;52167.00;;;-145.37;78.54
13486;BME280;6815;59.336;17.998;2023-04-30T02:10:30;52180.97;;;-145.37;78.00
13486;BME280;6815;59.336;17.998;2023-04-30T02:12:55;52161.03;;;-145.37;78.19
13486;BME280;6815;59.336;17.998;2023-04-30T02:15:21;52129.06;;;-145.37;77.46
13486;BME280;6815;59.336;17.998;2023-04-30T02:17:46;52135.06;;;-145.37;77.60
13486;BME280;6815;59.336;17.998;2023-04-30T02:20:12;52171.00;;;-145.37;77.25
13486;BME280;6815;59.336;17.998;2023-04-30T02:22:37;52157.03;;;-145.37;77.26
13486;BME280;6815;59.336;17.998;2023-04-30T02:25:03;52165.00;;;-145.37;77.38
13486;BME280;6815;59.336;17.998;2023-04-30T02:27:30;52198.94;;;-145.37;77.56
13486;BME280;6815;59.336;17.998;2023-04-30T02:29:56;52157.03;;;-145.37;76.94
13486;BME280;6815;59.336;17.998;2023-04-30T02:32:22;52141.06;;;-145.37;77.27
13486;BME280;6815;59.336;17.998;2023-04-30T02:34:47;52184.97;;;-145.37;76.54
13486;BME280;6815;59.336;17.998;2023-04-30T02:37:13;52173.00;;;-145.37;75.91
13486;BME280;6815;59.336;17.998;2023-04-30T02:39:39;52169.00;;;-145.37;75.82
13486;BME280;6815;59.336;17.998;2023-04-30T02:42:05;52155.03;;;-145.37;76.40
13486;BME280;6815;59.336;17.998;2023-04-30T02:44:33;52153.03;;;-145.37;75.88
13486;BME280;6815;59.336;17.998;2023-04-30T02:46:59;52161.03;;;-145.37;75.60
13486;BME280;6815;59.336;17.998;2023-04-30T02:49:25;52169.00;;;-145.37;75.77
13486;BME280;6815;59.336;17.998;2023-04-30T02:51:51;52157.03;;;-145.37;75.66
13486;BME280;6815;59.336;17.998;2023-04-30T02:54:16;52153.03;;;-145.37;75.58
13486;BME280;6815;59.336;17.998;2023-04-30T02:56:42;52161.03;;;-145.37;76.20
13486;BME280;6815;59.336;17.998;2023-04-30T02:59:08;52149.03;;;-145.37;76.87
13486;BME280;6815;59.336;17.998;2023-04-30T03:01:34;52171.00;;;-145.37;77.57
13486;BME280;6815;59.336;17.998;2023-04-30T03:03:59;52107.13;;;-145.37;76.81
13486;BME280;6815;59.336;17.998;2023-04-30T03:06:25;52175.00;;;-145.37;76.61
13486;BME280;6815;59.336;17.998;2023-04-30T03:08:50;52167.00;;;-145.37;76.47
13486;BME280;6815;59.336;17.998;2023-04-30T03:11:16;52129.06;;;-145.37;76.63
13486;BME280;6815;59.336;17.998;2023-04-30T03:13:42;52127.09;;;-145.37;76.70
13486;BME280;6815;59.336;17.998;2023-04-30T03:16:07;52143.06;;;-145.37;76.01
13486;BME280;6815;59.336;17.998;2023-04-30T03:18:33;52147.03;;;-145.37;75.60
13486;BME280;6815;59.336;17.998;2023-04-30T03:20:58;52137.06;;;-145.37;75.69
13486;BME280;6815;59.336;17.998;2023-04-30T03:23:26;52105.13;;;-145.37;76.02
13486;BME280;6815;59.336;17.998;2023-04-30T03:25:52;52145.03;;;-145.37;75.99
13486;BME280;6815;59.336;17.998;2023-04-30T03:28:17;52159.03;;;-145.37;75.47
13486;BME280;6815;59.336;17.998;2023-04-30T03:30:42;52153.03;;;-145.37;75.44
13486;BME280;6815;59.336;17.998;2023-04-30T03:33:08;52145.03;;;-145.37;75.10
13486;BME280;6815;59.336;17.998;2023-04-30T03:35:33;52149.03;;;-145.37;75.67
13486;BME280;6815;59.336;17.998;2023-04-30T03:38:00;52137.06;;;-145.37;75.47
13486;BME280;6815;59.336;17.998;2023-04-30T03:40:26;52149.03;;;-145.37;74.90
13486;BME280;6815;59.336;17.998;2023-04-30T03:42:51;52139.06;;;-145.37;75.10
13486;BME280;6815;59.336;17.998;2023-04-30T03:45:17;52155.03;;;-145.37;75.16
13486;BME280;6815;59.336;17.998;2023-04-30T03:47:43;52153.03;;;-145.37;75.88
13486;BME280;6815;59.336;17.998;2023-04-30T03:50:09;52139.06;;;-145.37;75.07
13486;BME280;6815;59.336;17.998;2023-04-30T03:52:35;52153.03;;;-145.37;75.03
13486;BME280;6815;59.336;17.998;2023-04-30T03:55:04;52159.03;;;-145.37;75.28
13486;BME280;6815;59.336;17.998;2023-04-30T03:57:31;52139.06;;;-145.37;74.68
13486;BME280;6815;59.336;17.998;2023-04-30T03:59:57;52141.06;;;-145.37;75.21
13486;BME280;6815;59.336;17.998;2023-04-30T04:02:22;52184.97;;;-145.37;74.75
13486;BME280;6815;59.336;17.998;2023-04-30T04:04:48;52149.03;;;-145.37;74.49
13486;BME280;6815;59.336;17.998;2023-04-30T04:07:14;52198.94;;;-145.37;74.23
13486;BME280;6815;59.336;17.998;2023-04-30T04:09:40;52169.00;;;-145.37;74.17
13486;BME280;6815;59.336;17.998;2023-04-30T04:12:06;52165.00;;;-145.37;73.66
13486;BME280;6815;59.336;17.998;2023-04-30T04:14:31;52131.06;;;-145.37;74.11
13486;BME280;6815;59.336;17.998;2023-04-30T04:16:57;52143.06;;;-145.37;73.64
13486;BME280;6815;59.336;17.998;2023-04-30T04:19:24;52182.97;;;-145.37;73.08
13486;BME280;6815;59.336;17.998;2023-04-30T04:21:50;52111.13;;;-145.37;73.06
13486;BME280;6815;59.336;17.998;2023-04-30T04:24:15;52171.00;;;-145.37;72.77
13486;BME280;6815;59.336;17.998;2023-04-30T04:26:41;52159.03;;;-145.37;72.09
13486;BME280;6815;59.336;17.998;2023-04-30T04:29:06;52157.03;;;-145.37;71.76
13486;BME280;6815;59.336;17.998;2023-04-30T04:31:35;52165.00;;;-145.37;71.22
13486;BME280;6815;59.336;17.998;2023-04-30T04:34:02;52147.03;;;-145.37;71.84
13486;BME280;6815;59.336;17.998;2023-04-30T04:36:28;52177.00;;;-145.37;71.08
13486;BME280;6815;59.336;17.998;2023-04-30T04:38:58;52121.09;;;-145.37;71.37
13486;BME280;6815;59.336;17.998;2023-04-30T04:41:27;52194.94;;;-145.37;71.02
13486;BME280;6815;59.336;17.998;2023-04-30T04:43:53;52178.97;;;-145.37;71.40
13486;BME280;6815;59.336;17.998;2023-04-30T04:46:18;52149.03;;;-145.37;70.88
13486;BME280;6815;59.336;17.998;2023-04-30T04:48:45;52175.00;;;-145.37;71.27
13486;BME280;6815;59.336;17.998;2023-04-30T04:51:11;52159.03;;;-145.37;70.50
13486;BME280;6815;59.336;17.998;2023-04-30T04:53:36;52173.00;;;-145.37;70.33
13486;BME280;6815;59.336;17.998;2023-04-30T04:56:02;52147.03;;;-145.37;70.01
13486;BME280;6815;59.336;17.998;2023-04-30T04:58:27;52159.03;;;-145.37;70.44
13486;BME280;6815;59.336;17.998;2023-04-30T05:00:53;52188.97;;;-145.37;70.82
13486;BME280;6815;59.336;17.998;2023-04-30T05:03:19;52165.00;;;-145.37;70.13
13486;BME280;6815;59.336;17.998;2023-04-30T05:05:47;52147.03;;;-145.37;71.05
13486;BME280;6815;59.336;17.998;2023-04-30T05:08:13;52129.06;;;-145.37;70.11
13486;BME280;6815;59.336;17.998;2023-04-30T05:10:38;52137.06;;;-145.37;70.36
13486;BME280;6815;59.336;17.998;2023-04-30T05:13:04;52135.06;;;-145.37;70.96
13486;BME280;6815;59.336;17.998;2023-04-30T05:15:29;52151.03;;;-145.37;70.27
13486;BME280;6815;59.336;17.998;2023-04-30T05:17:55;52165.00;;;-145.37;68.95
13486;BME280;6815;59.336;17.998;2023-04-30T05:20:20;52194.94;;;-145.37;66.82
13486;BME280;6815;59.336;17.998;2023-04-30T05:22:46;52159.03;;;-145.37;67.91
13486;BME280;6815;59.336;17.998;2023-04-30T05:25:11;52139.06;;;-145.37;66.46
13486;BME280;6815;59.336;17.998;2023-04-30T05:27:36;52167.00;;;-145.37;66.24
13486;BME280;6815;59.336;17.998;2023-04-30T05:30:02;52147.03;;;-145.37;66.74
13486;BME280;6815;59.336;17.998;2023-04-30T05:32:28;52192.97;;;-145.37;67.59
13486;BME280;6815;59.336;17.998;2023-04-30T05:34:53;52169.00;;;-145.37;67.42
13486;BME280;6815;59.336;17.998;2023-04-30T05:37:19;52123.09;;;-145.37;66.95
13486;BME280;6815;59.336;17.998;2023-04-30T05:39:46;52159.03;;;-145.37;67.07
13486;BME280;6815;59.336;17.998;2023-04-30T05:42:12;52129.06;;;-145.37;67.21
13486;BME280;6815;59.336;17.998;2023-04-30T05:44:37;52161.03;;;-145.37;67.29
13486;BME280;6815;59.336;17.998;2023-04-30T05:47:03;52161.03;;;-145.37;68.11
13486;BME280;6815;59.336;17.998;2023-04-30T05:49:28;52165.00;;;-145.37;67.75
13486;BME280;6815;59.336;17.998;2023-04-30T05:51:54;52204.94;;;-145.37;68.06
13486;BME280;6815;59.336;17.998;2023-04-30T05:54:19;52153.03;;;-145.37;67.51
13486;BME280;6815;59.336;17.998;2023-04-30T05:56:45;52153.03;;;-145.37;68.16
13486;BME280;6815;59.336;17.998;2023-04-30T05:59:10;52133.06;;;-145.37;68.28
13486;BME280;6815;59.336;17.998;2023-04-30T06:01:36;52145.03;;;-145.37;67.89
13486;BME280;6815;59.336;17.998;2023-04-30T06:04:01;52173.00;;;-145.37;68.74
13486;BME280;6815;59.336;17.998;2023-04-30T06:06:29;52171.00;;;-145.37;68.27
13486;BME280;6815;59.336;17.998;2023-04-30T06:08:55;52177.00;;;-145.37;68.82
13486;BME280;6815;59.336;17.998;2023-04-30T06:11:20;52182.97;;;-145.37;69.51
13486;BME280;6815;59.336;17.998;2023-04-30T06:13:47;52175.00;;;-145.37;68.93
13486;BME280;6815;59.336;17.998;2023-04-30T06:16:13;52208.94;;;-145.37;68.44
13486;BME280;6815;59.336;17.998;2023-04-30T06:18:38;52153.03;;;-145.37;69.17
13486;BME280;6815;59.336;17.998;2023-04-30T06:21:04;52188.97;;;-145.37;68.60
13486;BME280;6815;59.336;17.998;2023-04-30T06:23:29;52135.06;;;-145.37;67.79
13486;BME280;6815;59.336;17.998;2023-04-30T06:25:55;52196.94;;;-145.37;67.51
13486;BME280;6815;59.336;17.998;2023-04-30T06:28:21;52169.00;;;-145.37;67.83
13486;BME280;6815;59.336;17.998;2023-04-30T06:30:46;52159.03;;;-145.37;66.06
13486;BME280;6815;59.336;17.998;2023-04-30T06:33:12;52180.97;;;-145.37;65.76
13486;BME280;6815;59.336;17.998;2023-04-30T06:35:37;52171.00;;;-145.37;66.22
13486;BME280;6815;59.336;17.998;2023-04-30T06:38:03;52165.00;;;-145.37;65.12
13486;BME280;6815;59.336;17.998;2023-04-30T06:40:28;52171.00;;;-145.37;64.09
13486;BME280;6815;59.336;17.998;2023-04-30T06:42:54;52141.06;;;-145.37;64.86
13486;BME280;6815;59.336;17.998;2023-04-30T06:45:19;52167.00;;;-145.37;64.00
13486;BME280;6815;59.336;17.998;2023-04-30T06:47:45;52141.06;;;-145.37;63.50
13486;BME280;6815;59.336;17.998;2023-04-30T06:50:11;52167.00;;;-145.37;63.32
13486;BME280;6815;59.336;17.998;2023-04-30T06:52:37;52171.00;;;-145.37;62.94
13486;BME280;6815;59.336;17.998;2023-04-30T06:55:02;52188.97;;;-145.37;62.61
13486;BME280;6815;59.336;17.998;2023-04-30T06:57:28;52153.03;;;-145.37;63.57
13486;BME280;6815;59.336;17.998;2023-04-30T06:59:54;52163.00;;;-145.37;64.01
13486;BME280;6815;59.336;17.998;2023-04-30T07:02:19;52137.06;;;-145.37;63.65
13486;BME280;6815;59.336;17.998;2023-04-30T07:04:45;52177.00;;;-145.37;63.39
13486;BME280;6815;59.336;17.998;2023-04-30T07:07:11;52204.94;;;-145.37;62.82
13486;BME280;6815;59.336;17.998;2023-04-30T07:09:36;52159.03;;;-145.37;63.70
13486;BME280;6815;59.336;17.998;2023-04-30T07:12:03;52192.97;;;-145.37;64.14
13486;BME280;6815;59.336;17.998;2023-04-30T07:14:29;52178.97;;;-145.37;63.87
13486;BME280;6815;59.336;17.998;2023-04-30T07:16:54;52137.06;;;-145.37;64.26
13486;BME280;6815;59.336;17.998;2023-04-30T07:19:20;52147.03;;;-145.37;64.91
13486;BME280;6815;59.336;17.998;2023-04-30T07:21:45;52208.94;;;-145.37;65.03
13486;BME280;6815;59.336;17.998;2023-04-30T07:24:11;52198.94;;;-145.37;64.15
13486;BME280;6815;59.336;17.998;2023-04-30T07:26:36;52178.97;;;-145.37;64.67
13486;BME280;6815;59.336;17.998;2023-04-30T07:29:02;52153.03;;;-145.37;64.71
13486;BME280;6815;59.336;17.998;2023-04-30T07:31:28;52129.06;;;-145.37;64.39
13486;BME280;6815;59.336;17.998;2023-04-30T07:33:54;52169.00;;;-145.37;64.31
13486;BME280;6815;59.336;17.998;2023-04-30T07:36:20;52139.06;;;-145.37;64.74
13486;BME280;6815;59.336;17.998;2023-04-30T07:38:45;52167.00;;;-145.37;65.54
13486;BME280;6815;59.336;17.998;2023-04-30T07:41:11;52149.03;;;-145.37;63.79
13486;BME280;6815;59.336;17.998;2023-04-30T07:43:37;52169.00;;;-145.37;64.01
13486;BME280;6815;59.336;17.998;2023-04-30T07:46:03;52177.00;;;-145.37;64.23
13486;BME280;6815;59.336;17.998;2023-04-30T07:48:29;52171.00;;;-145.37;63.78
13486;BME280;6815;59.336;17.998;2023-04-30T07:50:54;52159.03;;;-145.37;63.87
13486;BME280;6815;59.336;17.998;2023-04-30T07:53:21;52175.00;;;-145.37;62.96
13486;BME280;6815;59.336;17.998;2023-04-30T07:55:47;52137.06;;;-145.37;63.60
13486;BME280;6815;59.336;17.998;2023-04-30T07:58:12;52180.97;;;-145.37;63.03
13486;BME280;6815;59.336;17.998;2023-04-30T08:00:37;52188.97;;;-145.37;62.38
13486;BME280;6815;59.336;17.998;2023-04-30T08:03:03;52180.97;;;-145.37;62.28
13486;BME280;6815;59.336;17.998;2023-04-30T08:05:28;52155.03;;;-145.37;62.25
13486;BME280;6815;59.336;17.998;2023-04-30T08:07:54;52155.03;;;-145.37;62.76
13486;BME280;6815;59.336;17.998;2023-04-30T08:10:19;52157.03;;;-145.37;62.65
13486;BME280;6815;59.336;17.998;2023-04-30T08:12:45;52153.03;;;-145.37;61.76
13486;BME280;6815;59.336;17.998;2023-04-30T08:15:10;52177.00;;;-145.37;61.22
13486;BME280;6815;59.336;17.998;2023-04-30T08:17:36;52171.00;;;-145.37;60.34
13486;BME280;6815;59.336;17.998;2023-04-30T08:20:02;52184.97;;;-145.37;59.95
13486;BME280;6815;59.336;17.998;2023-04-30T08:22:28;52141.06;;;-145.37;59.73
13486;BME280;6815;59.336;17.998;2023-04-30T08:24:54;52188.97;;;-145.37;59.40
13486;BME280;6815;59.336;17.998;2023-04-30T08:27:20;52214.91;;;-145.37;58.99
13486;BME280;6815;59.336;17.998;2023-04-30T08:29:46;52177.00;;;-145.37;59.78
13486;BME280;6815;59.336;17.998;2023-04-30T08:32:11;52184.97;;;-145.37;58.90
13486;BME280;6815;59.336;17.998;2023-04-30T08:34:37;52171.00;;;-145.37;59.09
13486;BME280;6815;59.336;17.998;2023-04-30T08:37:05;52177.00;;;-145.37;58.85
13486;BME280;6815;59.336;17.998;2023-04-30T08:39:30;52155.03;;;-145.37;57.71
13486;BME280;6815;59.336;17.998;2023-04-30T08:42:00;52159.03;;;-145.37;58.08
13486;BME280;6815;59.336;17.998;2023-04-30T08:44:26;52139.06;;;-145.37;58.19
13486;BME280;6815;59.336;17.998;2023-04-30T08:46:53;52171.00;;;-145.37;57.41
13486;BME280;6815;59.336;17.998;2023-04-30T08:49:20;52139.06;;;-145.37;58.11
13486;BME280;6815;59.336;17.998;2023-04-30T08:51:47;52190.97;;;-145.37;57.15
13486;BME280;6815;59.336;17.998;2023-04-30T08:54:13;52173.00;;;-145.37;56.34
13486;BME280;6815;59.336;17.998;2023-04-30T08:56:41;52194.94;;;-145.37;56.41
13486;BME280;6815;59.336;17.998;2023-04-30T08:59:07;52177.00;;;-145.37;56.90
13486;BME280;6815;59.336;17.998;2023-04-30T09:01:33;52177.00;;;-145.37;57.09
13486;BME280;6815;59.336;17.998;2023-04-30T09:04:01;52163.00;;;-145.37;55.79
13486;BME280;6815;59.336;17.998;2023-04-30T09:06:27;52194.94;;;-145.37;56.11
13486;BME280;6815;59.336;17.998;2023-04-30T09:08:53;52188.97;;;-145.37;56.06
13486;BME280;6815;59.336;17.998;2023-04-30T09:11:29;52210.91;;;-145.37;56.71
13486;BME280;6815;59.336;17.998;2023-04-30T09:13:57;52188.97;;;-145.37;56.16
13486;BME280;6815;59.336;17.998;2023-04-30T09:16:24;52184.97;;;-145.37;55.71
13486;BME280;6815;59.336;17.998;2023-04-30T09:18:50;52169.00;;;-145.37;55.50
13486;BME280;6815;59.336;17.998;2023-04-30T09:21:15;52182.97;;;-145.37;54.91
13486;BME280;6815;59.336;17.998;2023-04-30T09:23:58;52177.00;;;-145.37;54.78
13486;BME280;6815;59.336;17.998;2023-04-30T09:26:36;52188.97;;;-145.37;54.32
13486;BME280;6815;59.336;17.998;2023-04-30T09:29:03;52208.94;;;-145.37;53.86
13486;BME280;6815;59.336;17.998;2023-04-30T09:31:38;52149.03;;;-145.37;53.55
13486;BME280;6815;59.336;17.998;2023-04-30T09:34:04;52167.00;;;-145.37;54.34
13486;BME280;6815;59.336;17.998;2023-04-30T09:36:33;52177.00;;;-145.37;53.41
13486;BME280;6815;59.336;17.998;2023-04-30T09:39:08;52208.94;;;-145.37;52.77
13486;BME280;6815;59.336;17.998;2023-04-30T09:41:37;52204.94;;;-145.37;51.95
13486;BME280;6815;59.336;17.998;2023-04-30T09:44:03;52163.00;;;-145.37;49.98
13486;BME280;6815;59.336;17.998;2023-04-30T09:46:33;52182.97;;;-145.37;49.74
13486;BME280;6815;59.336;17.998;2023-04-30T09:49:02;52220.91;;;-145.37;49.20
13486;BME280;6815;59.336;17.998;2023-04-30T09:51:28;52145.03;;;-145.37;48.44
13486;BME280;6815;59.336;17.998;2023-04-30T09:53:54;52159.03;;;-145.37;48.51
13486;BME280;6815;59.336;17.998;2023-04-30T09:56:21;52180.97;;;-145.37;47.79
13486;BME280;6815;59.336;17.998;2023-04-30T09:58:56;52167.00;;;-145.37;47.33
13486;BME280;6815;59.336;17.998;2023-04-30T10:01:26;52180.97;;;-145.37;47.55
13486;BME280;6815;59.336;17.998;2023-04-30T10:03:52;52224.91;;;-145.37;48.52
13486;BME280;6815;59.336;17.998;2023-04-30T10:06:19;52186.97;;;-145.37;48.01
13486;BME280;6815;59.336;17.998;2023-04-30T10:08:54;52208.94;;;-145.37;47.99
13486;BME280;6815;59.336;17.998;2023-04-30T10:11:22;52157.03;;;-145.37;47.00
13486;BME280;6815;59.336;17.998;2023-04-30T10:13:59;52151.03;;;-145.37;47.23
13486;BME280;6815;59.336;17.998;2023-04-30T10:16:42;52190.97;;;-145.37;46.98
13486;BME280;6815;59.336;17.998;2023-04-30T10:19:18;52119.09;;;-145.37;45.27
13486;BME280;6815;59.336;17.998;2023-04-30T10:21:45;52151.03;;;-145.37;44.21
13486;BME280;6815;59.336;17.998;2023-04-30T10:24:15;52173.00;;;-145.37;44.29
13486;BME280;6815;59.336;17.998;2023-04-30T10:26:45;52180.97;;;-145.37;44.34
13486;BME280;6815;59.336;17.998;2023-04-30T10:29:13;52208.94;;;-145.37;43.87
13486;BME280;6815;59.336;17.998;2023-04-30T10:31:40;52228.88;;;-145.37;44.55
13486;BME280;6815;59.336;17.998;2023-04-30T10:34:15;52208.94;;;-145.37;44.87
13486;BME280;6815;59.336;17.998;2023-04-30T10:36:44;52238.88;;;-145.37;45.00
13486;BME280;6815;59.336;17.998;2023-04-30T10:39:16;52188.97;;;-145.37;44.29
13486;BME280;6815;59.336;17.998;2023-04-30T10:41:46;52190.97;;;-145.37;43.88
13486;BME280;6815;59.336;17.998;2023-04-30T10:44:13;52188.97;;;-145.37;43.71
13486;BME280;6815;59.336;17.998;2023-04-30T10:46:39;52188.97;;;-145.37;42.71
13486;BME280;6815;59.336;17.998;2023-04-30T10:49:05;52177.00;;;-145.37;42.59
13486;BME280;6815;59.336;17.998;2023-04-30T10:51:49;52147.03;;;-145.37;42.22
13486;BME280;6815;59.336;17.998;2023-04-30T10:54:30;52180.97;;;-145.37;42.16
13486;BME280;6815;59.336;17.998;2023-04-30T10:57:12;52180.97;;;-145.37;42.03
13486;BME280;6815;59.336;17.998;2023-04-30T11:02:44;52163.00;;;-145.37;41.13
13486;BME280;6815;59.336;17.998;2023-04-30T11:05:36;52194.94;;;-145.37;40.83
13486;BME280;6815;59.336;17.998;2023-04-30T11:08:02;52173.00;;;-145.37;40.89
13486;BME280;6815;59.336;17.998;2023-04-30T11:10:32;52171.00;;;-145.37;40.97
13486;BME280;6815;59.336;17.998;2023-04-30T11:13:03;52157.03;;;-145.37;40.32
13486;BME280;6815;59.336;17.998;2023-04-30T11:15:47;52145.03;;;-145.37;40.81
13486;BME280;6815;59.336;17.998;2023-04-30T11:18:12;52147.03;;;-145.37;39.84
13486;BME280;6815;59.336;17.998;2023-04-30T11:20:39;52178.97;;;-145.37;40.82
13486;BME280;6815;59.336;17.998;2023-04-30T11:23:10;52177.00;;;-145.37;39.87
13486;BME280;6815;59.336;17.998;2023-04-30T11:25:41;52204.94;;;-145.37;39.60
13486;BME280;6815;59.336;17.998;2023-04-30T11:28:16;52196.94;;;-145.37;40.52
13486;BME280;6815;59.336;17.998;2023-04-30T11:33:18;52169.00;;;-145.37;39.24
13486;BME280;6815;59.336;17.998;2023-04-30T11:35:44;52204.94;;;-145.37;40.40
13486;BME280;6815;59.336;17.998;2023-04-30T11:38:11;52155.03;;;-145.37;41.76
13486;BME280;6815;59.336;17.998;2023-04-30T11:40:38;52210.91;;;-145.37;44.00
13486;BME280;6815;59.336;17.998;2023-04-30T11:43:04;52188.97;;;-145.37;43.75
13486;BME280;6815;59.336;17.998;2023-04-30T11:45:29;52194.94;;;-145.37;43.80
13486;BME280;6815;59.336;17.998;2023-04-30T11:47:56;52169.00;;;-145.37;42.36
13486;BME280;6815;59.336;17.998;2023-04-30T11:50:26;52163.00;;;-145.37;41.69
13486;BME280;6815;59.336;17.998;2023-04-30T11:52:58;52177.00;;;-145.37;40.53
13486;BME280;6815;59.336;17.998;2023-04-30T11:55:26;52192.97;;;-145.37;40.59
13486;BME280;6815;59.336;17.998;2023-04-30T11:57:54;52155.03;;;-145.37;40.59
13486;BME280;6815;59.336;17.998;2023-04-30T12:00:28;52188.97;;;-145.37;38.50
13486;BME280;6815;59.336;17.998;2023-04-30T12:02:54;52194.94;;;-145.37;37.92
13486;BME280;6815;59.336;17.998;2023-04-30T12:05:25;52184.97;;;-145.37;37.10
13486;BME280;6815;59.336;17.998;2023-04-30T12:08:10;52175.00;;;-145.37;37.25
13486;BME280;6815;59.336;17.998;2023-04-30T12:10:36;52163.00;;;-145.37;36.88
13486;BME280;6815;59.336;17.998;2023-04-30T12:13:01;52147.03;;;-145.37;36.85
13486;BME280;6815;59.336;17.998;2023-04-30T12:15:27;52180.97;;;-145.37;36.53
13486;BME280;6815;59.336;17.998;2023-04-30T12:17:58;52153.03;;;-145.37;36.88
13486;BME280;6815;59.336;17.998;2023-04-30T12:20:26;52182.97;;;-145.37;36.47
13486;BME280;6815;59.336;17.998;2023-04-30T12:22:52;52165.00;;;-145.37;36.42
13486;BME280;6815;59.336;17.998;2023-04-30T12:25:20;52139.06;;;-145.37;36.54
13486;BME280;6815;59.336;17.998;2023-04-30T12:27:48;52202.94;;;-145.37;36.41
13486;BME280;6815;59.336;17.998;2023-04-30T12:30:18;52161.03;;;-145.37;35.82
13486;BME280;6815;59.336;17.998;2023-04-30T12:32:45;52163.00;;;-145.37;37.18
13486;BME280;6815;59.336;17.998;2023-04-30T12:35:20;52161.03;;;-145.37;36.19
13486;BME280;6815;59.336;17.998;2023-04-30T12:37:55;52210.91;;;-145.37;35.94
13486;BME280;6815;59.336;17.998;2023-04-30T12:40:26;52135.06;;;-145.37;35.66
13486;BME280;6815;59.336;17.998;2023-04-30T12:42:59;52184.97;;;-145.37;34.98
13486;BME280;6815;59.336;17.998;2023-04-30T12:45:50;52153.03;;;-145.37;35.38
13486;BME280;6815;59.336;17.998;2023-04-30T12:48:17;52186.97;;;-145.37;33.50
13486;BME280;6815;59.336;17.998;2023-04-30T12:51:08;52149.03;;;-145.37;32.87
13486;BME280;6815;59.336;17.998;2023-04-30T12:53:44;52196.94;;;-145.37;32.68
13486;BME280;6815;59.336;17.998;2023-04-30T12:58:37;52139.06;;;-145.37;33.39
13486;BME280;6815;59.336;17.998;2023-04-30T13:01:03;52133.06;;;-145.37;33.42
13486;BME280;6815;59.336;17.998;2023-04-30T13:03:29;52206.94;;;-145.37;33.66
13486;BME280;6815;59.336;17.998;2023-04-30T13:05:54;52147.03;;;-145.37;33.40
13486;BME280;6815;59.336;17.998;2023-04-30T13:08:20;52184.97;;;-145.37;33.95